Time;durP1;ratioP1;P1;durP2;ratioP2;P2;SDS_P1;SDS_P2;PMS_P1;PMS_P2;Temp;Humidity;BMP_temperature;BMP_pressure;BME280_temperature;BME280_humidity;BME280_pressure;Samples;Min_cycle;Max_cycle;Signal;HPM_P1;HPM_P2
2021/06/20 00:01:58;;;;;;;14.07;12.67;;;24.00;99.90;;;;;;5069346;28;20572;-69
2021/06/20 00:04:25;;;;;;;13.00;11.80;;;23.90;99.90;;;;;;5069624;28;20517;-69
2021/06/20 00:06:53;;;;;;;14.43;12.93;;;24.00;99.90;;;;;;5070796;28;20550;-70
2021/06/20 00:09:20;;;;;;;15.57;12.43;;;24.00;99.90;;;;;;5068400;28;21211;-70
2021/06/20 00:11:49;;;;;;;15.13;13.10;;;24.00;99.90;;;;;;5078636;28;20457;-68
2021/06/20 00:14:16;;;;;;;15.20;12.23;;;24.00;99.90;;;;;;5069801;28;20475;-70
2021/06/20 00:16:43;;;;;;;14.17;12.97;;;24.10;99.90;;;;;;5070376;28;20534;-71
2021/06/20 00:19:11;;;;;;;14.77;13.43;;;24.10;99.90;;;;;;5069962;28;20454;-70
2021/06/20 00:21:38;;;;;;;14.23;13.00;;;24.10;99.90;;;;;;5070403;28;20451;-70
2021/06/20 00:24:08;;;;;;;13.93;12.63;;;24.10;99.90;;;;;;5070536;28;20502;-70
2021/06/20 00:26:35;;;;;;;15.13;13.73;;;24.00;99.90;;;;;;5069170;28;20481;-70
2021/06/20 00:29:02;;;;;;;14.60;13.17;;;24.00;99.90;;;;;;5069385;28;21028;-71
2021/06/20 00:31:29;;;;;;;13.50;12.10;;;24.00;99.90;;;;;;5069687;28;20477;-71
2021/06/20 00:33:56;;;;;;;14.53;13.23;;;24.00;99.90;;;;;;5071654;28;20495;-68
2021/06/20 00:36:23;;;;;;;16.80;14.57;;;24.00;99.90;;;;;;5071831;28;20479;-70
2021/06/20 00:38:49;;;;;;;13.77;12.47;;;24.00;99.90;;;;;;5071916;28;20553;-70
2021/06/20 00:41:18;;;;;;;17.07;13.50;;;24.00;99.90;;;;;;5071424;28;20533;-69
2021/06/20 00:43:44;;;;;;;15.23;12.50;;;24.00;99.90;;;;;;5071328;28;20494;-69
2021/06/20 00:46:11;;;;;;;14.17;12.87;;;24.00;99.90;;;;;;5070690;28;20453;-70
2021/06/20 00:48:38;;;;;;;13.00;11.70;;;24.00;99.90;;;;;;5071626;28;21099;-68
2021/06/20 00:51:05;;;;;;;14.00;12.63;;;24.00;99.90;;;;;;5070862;28;20479;-69
2021/06/20 00:53:32;;;;;;;14.97;12.57;;;24.00;99.90;;;;;;5071613;28;20534;-69
2021/06/20 00:56:00;;;;;;;12.73;11.53;;;24.10;99.90;;;;;;5071355;28;20450;-70
2021/06/20 00:58:28;;;;;;;12.73;11.53;;;24.10;99.90;;;;;;5072151;28;20466;-69
2021/06/20 01:00:55;;;;;;;13.53;12.13;;;24.20;99.90;;;;;;5070632;28;20968;-69
2021/06/20 01:03:22;;;;;;;12.67;11.30;;;24.20;99.90;;;;;;5071613;28;20573;-70
2021/06/20 01:05:49;;;;;;;12.60;11.43;;;24.10;99.90;;;;;;5071533;28;20447;-69
2021/06/20 01:08:16;;;;;;;13.10;11.80;;;24.20;99.90;;;;;;5071388;28;20443;-69
2021/06/20 01:10:43;;;;;;;12.63;11.40;;;24.30;99.90;;;;;;5070780;28;20885;-69
2021/06/20 01:13:11;;;;;;;14.80;12.20;;;24.40;99.90;;;;;;5071904;28;20542;-69
2021/06/20 01:15:41;;;;;;;12.77;11.50;;;24.50;99.90;;;;;;5071369;28;20543;-69
2021/06/20 01:18:09;;;;;;;12.43;11.20;;;24.50;99.90;;;;;;5071073;28;20983;-70
2021/06/20 01:20:36;;;;;;;13.23;11.30;;;24.40;99.90;;;;;;5071252;28;20922;-70
2021/06/20 01:23:05;;;;;;;12.73;11.40;;;24.50;99.90;;;;;;5072213;28;20479;-69
2021/06/20 01:25:33;;;;;;;12.77;10.80;;;24.60;99.90;;;;;;5071343;28;20451;-69
2021/06/20 01:28:04;;;;;;;16.63;10.87;;;24.80;99.90;;;;;;5071617;28;20435;-69
2021/06/20 01:30:34;;;;;;;23.97;11.10;;;24.90;99.90;;;;;;5071673;28;20683;-70
2021/06/20 01:33:02;;;;;;;23.10;13.40;;;25.00;99.90;;;;;;5072054;28;20459;-69
2021/06/20 01:35:30;;;;;;;21.93;9.53;;;25.10;99.90;;;;;;5072427;28;20538;-69
2021/06/20 01:37:59;;;;;;;29.93;11.07;;;25.10;99.90;;;;;;5071715;28;20535;-70
2021/06/20 01:40:28;;;;;;;20.43;10.23;;;25.20;99.90;;;;;;5077614;28;20704;-69
2021/06/20 01:42:56;;;;;;;24.30;11.10;;;25.40;99.90;;;;;;5079971;28;20518;-69
2021/06/20 01:45:25;;;;;;;22.33;10.20;;;25.50;99.90;;;;;;5080150;28;20446;-71
2021/06/20 01:47:53;;;;;;;27.80;10.50;;;25.60;99.90;;;;;;5075897;28;20963;-69
2021/06/20 01:50:20;;;;;;;21.93;10.73;;;25.70;99.90;;;;;;5069996;28;20534;-69
2021/06/20 01:52:47;;;;;;;21.83;10.80;;;25.60;99.90;;;;;;5070686;28;20541;-69
2021/06/20 01:55:16;;;;;;;24.77;11.00;;;25.60;99.90;;;;;;5070949;28;20625;-69
2021/06/20 01:57:46;;;;;;;24.23;10.57;;;25.70;99.90;;;;;;5070267;28;20461;-69
2021/06/20 02:00:15;;;;;;;37.57;10.73;;;25.70;99.90;;;;;;5069316;28;20455;-68
2021/06/20 02:02:42;;;;;;;24.93;9.90;;;25.80;99.90;;;;;;5070274;28;20487;-69
2021/06/20 02:05:10;;;;;;;19.60;9.33;;;25.80;99.90;;;;;;5070476;28;20945;-70
2021/06/20 02:07:38;;;;;;;26.13;10.50;;;25.70;99.90;;;;;;5070114;28;20445;-69
2021/06/20 02:10:09;;;;;;;23.60;9.57;;;25.70;99.90;;;;;;5070041;28;20449;-69
2021/06/20 02:12:36;;;;;;;26.30;11.73;;;25.80;99.90;;;;;;5070662;28;20466;-69
2021/06/20 02:15:06;;;;;;;27.13;9.50;;;25.70;99.90;;;;;;5070556;28;20446;-69
2021/06/20 02:17:34;;;;;;;30.93;9.87;;;25.70;99.90;;;;;;5070153;28;20432;-69
2021/06/20 02:20:04;;;;;;;24.03;9.33;;;25.70;99.90;;;;;;5069400;28;21017;-69
2021/06/20 02:22:32;;;;;;;22.67;11.60;;;25.70;99.90;;;;;;5069989;28;20443;-69
2021/06/20 02:24:59;;;;;;;29.83;11.17;;;25.60;99.90;;;;;;5070095;28;21043;-69
2021/06/20 02:27:26;;;;;;;22.80;9.20;;;25.60;99.90;;;;;;5069997;28;20439;-69
2021/06/20 02:29:55;;;;;;;23.57;9.40;;;25.60;99.90;;;;;;5069253;28;20447;-69
2021/06/20 02:32:25;;;;;;;27.73;10.00;;;25.50;99.90;;;;;;5070016;28;20581;-68
2021/06/20 02:34:53;;;;;;;28.10;10.00;;;25.60;99.90;;;;;;5069940;28;20453;-70
2021/06/20 02:37:21;;;;;;;28.00;9.97;;;25.60;99.90;;;;;;5069619;28;20542;-69
2021/06/20 02:39:48;;;;;;;18.67;9.90;;;25.60;99.90;;;;;;5069356;28;20451;-69
2021/06/20 02:42:16;;;;;;;28.40;11.20;;;25.50;99.90;;;;;;5069939;28;20467;-68
2021/06/20 02:44:44;;;;;;;25.63;9.80;;;25.50;99.90;;;;;;5070135;28;20570;-69
2021/06/20 02:47:12;;;;;;;21.20;10.20;;;25.40;99.90;;;;;;5069555;28;20450;-69
2021/06/20 02:49:41;;;;;;;25.90;10.60;;;25.30;99.90;;;;;;5069349;28;20439;-69
2021/06/20 02:52:10;;;;;;;22.70;10.03;;;25.10;99.90;;;;;;5069810;28;20443;-70
2021/06/20 02:54:37;;;;;;;23.00;11.00;;;24.90;99.90;;;;;;5069880;28;20541;-69
2021/06/20 02:57:05;;;;;;;24.87;11.10;;;24.80;99.90;;;;;;5069571;28;20451;-70
2021/06/20 02:59:32;;;;;;;26.10;12.43;;;24.70;99.90;;;;;;5068827;28;20447;-69
2021/06/20 03:01:59;;;;;;;24.97;11.30;;;24.70;99.90;;;;;;5069293;28;20481;-69
2021/06/20 03:04:26;;;;;;;27.03;10.77;;;24.60;99.90;;;;;;5069705;28;20487;-69
2021/06/20 03:06:54;;;;;;;23.80;11.43;;;24.50;99.90;;;;;;5069355;28;20858;-68
2021/06/20 03:09:21;;;;;;;27.17;11.43;;;24.40;99.90;;;;;;5069188;28;20822;-69
2021/06/20 03:11:48;;;;;;;21.40;11.30;;;24.40;99.90;;;;;;5070196;28;20441;-67
2021/06/20 03:14:15;;;;;;;20.53;11.70;;;24.20;99.90;;;;;;5073575;28;20467;-69
2021/06/20 03:16:43;;;;;;;22.27;10.20;;;24.10;99.90;;;;;;5073338;28;20451;-69
2021/06/20 03:19:11;;;;;;;22.10;9.97;;;24.00;99.90;;;;;;5073110;28;20445;-69
2021/06/20 03:21:38;;;;;;;23.27;10.70;;;24.00;99.90;;;;;;5073724;28;20878;-68
2021/06/20 03:24:07;;;;;;;25.37;12.60;;;23.90;99.90;;;;;;5073843;28;20490;-69
2021/06/20 03:26:34;;;;;;;23.83;10.67;;;23.90;99.90;;;;;;5073764;28;20469;-68
2021/06/20 03:29:02;;;;;;;19.00;9.83;;;23.90;99.90;;;;;;5072912;28;20451;-70
2021/06/20 03:31:29;;;;;;;22.37;10.73;;;23.80;99.90;;;;;;5073407;28;20461;-69
2021/06/20 03:33:58;;;;;;;18.10;11.40;;;23.80;99.90;;;;;;5073773;28;20470;-69
2021/06/20 03:36:25;;;;;;;21.10;10.70;;;23.80;99.90;;;;;;5073373;28;20447;-68
2021/06/20 03:38:52;;;;;;;19.40;10.33;;;23.60;99.90;;;;;;5073189;28;20940;-69
2021/06/20 03:41:21;;;;;;;23.63;10.73;;;23.60;99.90;;;;;;5072573;28;20508;-69
2021/06/20 03:43:48;;;;;;;22.43;11.13;;;23.60;99.90;;;;;;5072907;28;20589;-68
2021/06/20 03:46:17;;;;;;;18.23;9.43;;;23.50;99.90;;;;;;5072837;28;20537;-69
2021/06/20 03:48:45;;;;;;;22.30;11.50;;;23.50;99.90;;;;;;5073266;28;20454;-69
2021/06/20 03:51:11;;;;;;;21.17;10.10;;;23.50;99.90;;;;;;5072289;28;20466;-69
2021/06/20 03:53:39;;;;;;;17.10;10.20;;;23.50;99.90;;;;;;5072952;28;20461;-68
2021/06/20 03:56:06;;;;;;;22.17;10.53;;;23.50;99.90;;;;;;5072662;28;20453;-69
2021/06/20 03:58:34;;;;;;;17.83;10.27;;;23.40;99.90;;;;;;5073012;28;20453;-68
2021/06/20 04:01:01;;;;;;;20.13;10.10;;;23.40;99.90;;;;;;5072190;28;20538;-69
2021/06/20 04:03:28;;;;;;;20.67;11.57;;;23.30;99.90;;;;;;5072851;28;20582;-69
2021/06/20 04:05:55;;;;;;;18.20;11.13;;;23.30;99.90;;;;;;5072843;28;20461;-69
2021/06/20 04:08:22;;;;;;;19.63;10.43;;;23.30;99.90;;;;;;5074154;28;20447;-68
2021/06/20 04:10:49;;;;;;;14.17;10.13;;;23.30;99.90;;;;;;5072171;28;20451;-69
2021/06/20 04:13:16;;;;;;;17.20;9.80;;;23.30;99.90;;;;;;5072920;28;20463;-68
2021/06/20 04:15:44;;;;;;;18.43;9.90;;;23.40;99.90;;;;;;5072911;28;20529;-69
2021/06/20 04:18:11;;;;;;;15.50;9.70;;;23.50;99.90;;;;;;5072074;28;20459;-69
2021/06/20 04:20:38;;;;;;;19.00;9.23;;;23.60;99.90;;;;;;5071807;28;20461;-70
2021/06/20 04:23:05;;;;;;;21.13;10.77;;;23.60;99.90;;;;;;5071669;28;20471;-69
2021/06/20 04:25:32;;;;;;;22.23;9.00;;;23.70;99.90;;;;;;5072504;28;20537;-69
2021/06/20 04:27:59;;;;;;;22.33;9.50;;;23.80;99.90;;;;;;5071971;28;20453;-69
2021/06/20 04:30:26;;;;;;;14.83;9.77;;;23.90;99.90;;;;;;5071528;28;20439;-68
2021/06/20 04:32:54;;;;;;;20.93;10.30;;;24.00;99.90;;;;;;5072002;28;20462;-69
2021/06/20 04:35:22;;;;;;;17.23;9.70;;;24.00;99.90;;;;;;5071887;28;20551;-70
2021/06/20 04:37:49;;;;;;;17.50;10.07;;;24.00;99.90;;;;;;5071461;28;20446;-69
2021/06/20 04:40:18;;;;;;;24.63;11.70;;;24.10;99.90;;;;;;5071148;28;20455;-69
2021/06/20 04:42:54;;;;;;;18.83;9.80;;;24.10;99.90;;;;;;5071638;28;20482;-70
2021/06/20 04:45:21;;;;;;;22.40;10.73;;;24.10;99.90;;;;;;5071873;28;20478;-69
2021/06/20 04:47:48;;;;;;;17.67;9.00;;;24.00;99.90;;;;;;5071636;28;20533;-68
2021/06/20 04:50:17;;;;;;;14.60;10.17;;;23.90;99.90;;;;;;5070972;28;20496;-69
2021/06/20 04:52:44;;;;;;;15.70;9.17;;;23.90;99.90;;;;;;5071777;28;20469;-70
2021/06/20 04:55:11;;;;;;;19.40;10.10;;;23.90;99.90;;;;;;5071750;28;20525;-69
2021/06/20 04:57:39;;;;;;;19.40;10.60;;;23.90;99.90;;;;;;5071372;28;20543;-69
2021/06/20 05:00:09;;;;;;;21.27;9.63;;;24.00;99.90;;;;;;5071188;28;20554;-70
2021/06/20 05:02:36;;;;;;;22.50;11.47;;;24.10;99.90;;;;;;5071550;28;21027;-70
2021/06/20 05:05:04;;;;;;;15.87;9.90;;;24.20;99.90;;;;;;5071660;28;20487;-69
2021/06/20 05:07:32;;;;;;;17.70;11.37;;;24.40;99.90;;;;;;5071203;28;20465;-69
2021/06/20 05:10:00;;;;;;;13.47;9.50;;;24.50;99.90;;;;;;5070932;28;20447;-69
2021/06/20 05:12:27;;;;;;;18.53;10.20;;;24.70;99.90;;;;;;5071682;28;20889;-69
2021/06/20 05:14:54;;;;;;;18.57;10.57;;;24.80;99.90;;;;;;5071751;28;20447;-69
2021/06/20 05:17:20;;;;;;;17.67;10.00;;;24.90;99.90;;;;;;5070911;28;20453;-68
2021/06/20 05:19:48;;;;;;;19.10;10.40;;;24.90;99.90;;;;;;5070754;28;20453;-69
2021/06/20 05:22:15;;;;;;;22.07;11.50;;;24.90;99.90;;;;;;5071556;28;20443;-69
2021/06/20 05:24:43;;;;;;;18.03;10.07;;;25.00;99.90;;;;;;5071253;28;20570;-69
2021/06/20 05:27:10;;;;;;;20.30;10.83;;;25.10;99.90;;;;;;5070933;28;20447;-69
2021/06/20 05:29:38;;;;;;;18.07;11.00;;;25.10;99.90;;;;;;5070359;28;20529;-69
2021/06/20 05:32:06;;;;;;;18.80;10.30;;;25.10;99.90;;;;;;5071075;28;20538;-70
2021/06/20 05:34:33;;;;;;;27.10;10.80;;;25.00;99.90;;;;;;5070133;28;20498;-69
2021/06/20 05:36:59;;;;;;;23.17;10.00;;;24.90;99.90;;;;;;5070582;28;20451;-70
2021/06/20 05:39:26;;;;;;;22.27;11.27;;;24.70;99.90;;;;;;5070504;28;20453;-69
2021/06/20 05:41:54;;;;;;;24.20;10.27;;;24.60;99.90;;;;;;5070917;28;20477;-68
2021/06/20 05:44:22;;;;;;;25.97;11.40;;;24.50;99.90;;;;;;5071484;28;20520;-69
2021/06/20 05:46:48;;;;;;;15.60;10.80;;;24.40;99.90;;;;;;5070634;28;20534;-69
2021/06/20 05:49:15;;;;;;;24.73;10.83;;;24.30;99.90;;;;;;5070014;28;20443;-69
2021/06/20 05:51:42;;;;;;;17.60;10.60;;;24.20;99.90;;;;;;5070624;28;20435;-68
2021/06/20 05:54:09;;;;;;;17.97;11.20;;;24.00;99.90;;;;;;5070601;28;21158;-68
2021/06/20 05:56:36;;;;;;;22.47;11.93;;;23.90;99.90;;;;;;5070078;28;20522;-68
2021/06/20 05:59:05;;;;;;;23.00;12.17;;;24.00;99.90;;;;;;5069445;28;20971;-69
2021/06/20 06:01:32;;;;;;;20.57;10.03;;;24.10;99.90;;;;;;5070264;28;20451;-68
2021/06/20 06:03:59;;;;;;;22.37;10.87;;;24.40;99.90;;;;;;5070294;28;20489;-69
2021/06/20 06:06:25;;;;;;;23.70;10.17;;;24.60;99.90;;;;;;5069923;28;20483;-70
2021/06/20 06:08:52;;;;;;;25.40;10.33;;;24.70;99.90;;;;;;5070430;28;20478;-69
2021/06/20 06:11:19;;;;;;;21.83;10.73;;;24.80;99.90;;;;;;5069578;28;20491;-68
2021/06/20 06:13:46;;;;;;;19.07;10.73;;;24.80;99.90;;;;;;5070165;28;20499;-67
2021/06/20 06:16:15;;;;;;;25.83;11.03;;;25.00;99.90;;;;;;5069860;28;20439;-69
2021/06/20 06:18:42;;;;;;;21.57;12.07;;;25.10;99.90;;;;;;5070026;28;20530;-68
2021/06/20 06:21:09;;;;;;;16.67;9.73;;;25.30;99.90;;;;;;5069428;28;20457;-68
2021/06/20 06:23:37;;;;;;;19.00;9.40;;;25.50;99.90;;;;;;5069774;28;20553;-68
2021/06/20 06:26:03;;;;;;;17.93;10.97;;;25.80;99.90;;;;;;5069442;28;20467;-69
2021/06/20 06:28:31;;;;;;;14.43;8.60;;;25.80;99.90;;;;;;5064047;28;20435;-68
2021/06/20 06:30:57;;;;;;;20.97;10.30;;;25.90;99.90;;;;;;5069090;28;20914;-68
2021/06/20 06:33:26;;;;;;;20.70;8.53;;;25.90;99.90;;;;;;5068175;28;20495;-68
2021/06/20 06:35:53;;;;;;;14.40;8.60;;;25.90;99.90;;;;;;5068495;28;20959;-68
2021/06/20 06:38:20;;;;;;;16.90;8.90;;;25.90;99.90;;;;;;5069850;28;20439;-67
2021/06/20 06:40:47;;;;;;;17.70;8.70;;;25.80;99.90;;;;;;5069624;28;20530;-68
2021/06/20 06:43:14;;;;;;;18.30;8.07;;;25.80;99.90;;;;;;5070614;28;20524;-67
2021/06/20 06:45:41;;;;;;;15.10;7.87;;;25.80;99.90;;;;;;5070851;28;20482;-69
2021/06/20 06:48:08;;;;;;;14.30;7.53;;;25.80;99.90;;;;;;5073254;28;20519;-68
2021/06/20 06:50:37;;;;;;;17.93;7.20;;;25.80;99.90;;;;;;5070007;28;20441;-69
2021/06/20 06:53:04;;;;;;;17.73;6.57;;;25.90;99.90;;;;;;5070503;28;20554;-68
2021/06/20 06:55:31;;;;;;;18.07;8.87;;;25.90;99.90;;;;;;5066441;28;20448;-67
2021/06/20 06:57:58;;;;;;;13.67;7.03;;;26.00;99.90;;;;;;5055029;28;20444;-68
2021/06/20 07:00:25;;;;;;;11.63;6.47;;;26.10;99.90;;;;;;5049146;28;20447;-69
2021/06/20 07:02:53;;;;;;;16.23;6.93;;;26.10;99.90;;;;;;5050715;28;20654;-69
2021/06/20 07:05:21;;;;;;;12.57;7.47;;;25.90;99.90;;;;;;5049662;28;20471;-68
2021/06/20 07:07:50;;;;;;;12.10;6.40;;;25.80;99.90;;;;;;5050335;28;20478;-69
2021/06/20 07:10:16;;;;;;;21.07;8.43;;;25.60;99.90;;;;;;5049006;28;20495;-67
2021/06/20 07:12:43;;;;;;;13.30;7.70;;;25.60;99.90;;;;;;5049707;28;20530;-68
2021/06/20 07:15:12;;;;;;;15.43;7.00;;;25.60;99.90;;;;;;5049712;28;20564;-67
2021/06/20 07:17:39;;;;;;;12.80;7.30;;;25.40;99.90;;;;;;5049294;28;20443;-68
2021/06/20 07:20:11;;;;;;;11.20;7.07;;;25.30;99.90;;;;;;5057412;28;20462;-69
2021/06/20 07:22:39;;;;;;;14.30;7.17;;;25.20;99.90;;;;;;5050942;28;20553;-68
2021/06/20 07:25:09;;;;;;;13.33;7.50;;;25.40;99.90;;;;;;5058869;28;20471;-70
2021/06/20 07:27:36;;;;;;;13.97;6.63;;;25.30;99.90;;;;;;5054505;28;20506;-69
2021/06/20 07:30:06;;;;;;;12.40;6.50;;;25.20;99.90;;;;;;5048398;28;20444;-68
2021/06/20 07:32:33;;;;;;;10.63;6.20;;;25.30;99.90;;;;;;5049134;28;20447;-69
2021/06/20 07:35:00;;;;;;;16.47;7.40;;;25.40;99.90;;;;;;5049453;28;20452;-68
2021/06/20 07:37:27;;;;;;;17.60;7.53;;;25.40;99.90;;;;;;5068594;28;20519;-70
2021/06/20 07:39:54;;;;;;;12.17;7.17;;;25.50;99.90;;;;;;5067933;28;21092;-68
2021/06/20 07:42:22;;;;;;;12.87;6.07;;;25.60;99.90;;;;;;5058216;28;20458;-67
2021/06/20 07:44:49;;;;;;;9.60;5.90;;;25.80;99.90;;;;;;5066656;28;20478;-69
2021/06/20 07:47:16;;;;;;;9.17;5.63;;;25.70;99.90;;;;;;5069198;28;20439;-69
2021/06/20 07:49:43;;;;;;;11.40;6.00;;;25.70;99.90;;;;;;5070233;28;20451;-68
2021/06/20 07:52:10;;;;;;;10.23;6.00;;;25.40;99.90;;;;;;5065514;28;20538;-67
2021/06/20 07:54:38;;;;;;;11.57;5.70;;;25.20;99.90;;;;;;5066474;28;20582;-67
2021/06/20 07:57:11;;;;;;;15.07;5.80;;;25.20;99.90;;;;;;5065208;28;20834;-67
2021/06/20 07:59:39;;;;;;;12.37;6.30;;;25.30;99.90;;;;;;5071632;28;20514;-67
2021/06/20 08:02:07;;;;;;;10.27;5.90;;;25.40;99.90;;;;;;5071762;28;20436;-67
2021/06/20 08:04:38;;;;;;;9.23;5.70;;;25.20;99.90;;;;;;5068844;28;20336;-69
2021/06/20 08:07:05;;;;;;;11.27;6.60;;;25.10;99.90;;;;;;5075469;28;20429;-69
2021/06/20 08:09:31;;;;;;;11.37;6.10;;;25.00;99.90;;;;;;5073170;28;20451;-69
2021/06/20 08:12:08;;;;;;;;;;;;;;;;;;;;;
2021/06/20 08:14:36;;;;;;;10.23;5.97;;;24.90;99.90;;;;;;5081068;28;20455;-68
2021/06/20 08:17:04;;;;;;;9.97;5.40;;;24.90;99.90;;;;;;5073187;28;20443;-69
2021/06/20 08:19:33;;;;;;;13.93;6.07;;;25.10;99.90;;;;;;5071869;28;20535;-69
2021/06/20 08:22:00;;;;;;;9.97;6.13;;;25.30;99.90;;;;;;5070504;28;20596;-69
2021/06/20 08:24:27;;;;;;;11.30;5.87;;;25.30;99.90;;;;;;5068300;28;20920;-70
2021/06/20 08:26:53;;;;;;;10.50;6.03;;;25.30;99.90;;;;;;5067741;28;20483;-69
2021/06/20 08:29:20;;;;;;;8.87;6.00;;;25.20;99.90;;;;;;5074632;28;20542;-67
2021/06/20 08:31:47;;;;;;;10.60;5.47;;;25.10;99.90;;;;;;5069950;28;21734;-69
2021/06/20 08:34:15;;;;;;;9.33;4.90;;;25.20;99.90;;;;;;5073332;28;20641;-69
2021/06/20 08:36:42;;;;;;;11.20;6.10;;;25.30;99.90;;;;;;5071632;28;20448;-69
2021/06/20 08:39:09;;;;;;;8.80;5.00;;;25.50;99.90;;;;;;5071419;28;20549;-69
2021/06/20 08:41:44;;;;;;;8.43;4.87;;;25.40;99.90;;;;;;5072175;28;20529;-69
2021/06/20 08:44:16;;;;;;;10.97;5.07;;;25.30;99.90;;;;;;5071856;28;20475;-68
2021/06/20 08:46:43;;;;;;;9.97;5.13;;;25.50;99.90;;;;;;5072476;28;20479;-69
2021/06/20 08:49:11;;;;;;;8.93;4.50;;;25.70;99.90;;;;;;5072340;28;20439;-69
2021/06/20 08:51:40;;;;;;;8.97;4.97;;;25.50;99.90;;;;;;5070906;28;20461;-69
2021/06/20 08:54:07;;;;;;;12.73;5.27;;;25.30;99.90;;;;;;5070276;28;20479;-69
2021/06/20 08:56:34;;;;;;;11.50;5.30;;;25.50;99.90;;;;;;5073065;28;21023;-69
2021/06/20 08:59:04;;;;;;;8.93;5.07;;;25.80;99.90;;;;;;5070725;28;20998;-69
2021/06/20 09:01:31;;;;;;;8.53;4.67;;;26.20;99.90;;;;;;5072634;28;20450;-69
2021/06/20 09:03:58;;;;;;;9.37;5.60;;;26.70;99.90;;;;;;5072753;28;20455;-70
2021/06/20 09:06:26;;;;;;;9.53;4.40;;;27.10;99.90;;;;;;5070809;28;20558;-70
2021/06/20 09:08:56;;;;;;;9.10;4.97;;;27.40;99.90;;;;;;5066456;28;20957;-69
2021/06/20 09:11:25;;;;;;;8.73;5.07;;;27.60;99.90;;;;;;5062265;28;20451;-68
2021/06/20 09:13:59;;;;;;;6.90;4.20;;;27.70;99.90;;;;;;5080169;28;20607;-67
2021/06/20 09:16:26;;;;;;;9.93;5.00;;;27.60;99.90;;;;;;5086562;28;20447;-69
2021/06/20 09:18:54;;;;;;;9.90;4.70;;;27.30;99.90;;;;;;5087032;28;20481;-69
2021/06/20 09:21:23;;;;;;;13.63;5.17;;;27.20;99.90;;;;;;5088150;28;20537;-69
2021/06/20 09:23:51;;;;;;;11.20;6.10;;;27.10;99.90;;;;;;5065007;28;20473;-69
2021/06/20 09:26:32;;;;;;;5.80;4.40;;;27.10;99.90;;;;;;5077315;28;20471;-69
2021/06/20 09:28:59;;;;;;;10.90;4.90;;;27.30;99.90;;;;;;5055076;28;20447;-69
2021/06/20 09:31:27;;;;;;;7.13;4.13;;;27.70;99.90;;;;;;5069903;28;20530;-69
2021/06/20 09:34:01;;;;;;;6.83;4.87;;;27.60;99.90;;;;;;5068382;28;20553;-69
2021/06/20 09:36:31;;;;;;;9.40;4.73;;;27.70;99.90;;;;;;5069055;28;20466;-69
2021/06/20 09:38:57;;;;;;;7.40;4.70;;;27.80;99.90;;;;;;5067706;28;20439;-67
2021/06/20 09:41:26;;;;;;;12.37;5.37;;;27.80;99.90;;;;;;5068424;28;20455;-69
2021/06/20 09:43:55;;;;;;;11.50;5.70;;;28.10;99.90;;;;;;5085734;28;20472;-69
2021/06/20 09:46:23;;;;;;;10.47;5.53;;;28.40;99.90;;;;;;5087984;28;20573;-69
2021/06/20 09:48:51;;;;;;;10.27;5.33;;;28.60;99.90;;;;;;5088604;28;20940;-68
2021/06/20 09:51:20;;;;;;;8.27;4.77;;;29.00;99.90;;;;;;5071733;28;20534;-69
2021/06/20 09:53:48;;;;;;;7.70;4.90;;;29.10;99.90;;;;;;5069595;28;20463;-69
2021/06/20 09:56:18;;;;;;;10.73;4.60;;;28.80;99.90;;;;;;5068321;28;20459;-68
2021/06/20 09:58:48;;;;;;;7.37;4.73;;;29.00;99.90;;;;;;5068393;28;20531;-69
2021/06/20 10:01:17;;;;;;;14.03;5.17;;;29.30;99.90;;;;;;5067778;28;20481;-68
2021/06/20 10:03:45;;;;;;;9.80;6.53;;;29.10;99.90;;;;;;5068215;28;20550;-69
2021/06/20 10:06:13;;;;;;;9.67;5.77;;;29.30;99.90;;;;;;5067517;28;20479;-68
2021/06/20 10:08:41;;;;;;;9.93;5.73;;;29.60;99.90;;;;;;5067867;28;20443;-69
2021/06/20 10:11:08;;;;;;;8.13;4.80;;;29.80;99.90;;;;;;5067437;28;20474;-68
2021/06/20 10:13:34;;;;;;;14.30;6.20;;;29.80;99.90;;;;;;5068098;28;20503;-69
2021/06/20 10:16:19;;;;;;;9.57;6.90;;;29.90;99.90;;;;;;5068793;28;20941;-65
2021/06/20 10:18:51;;;;;;;10.60;6.40;;;29.80;99.90;;;;;;5067278;28;20454;-68
2021/06/20 10:21:29;;;;;;;8.43;5.10;;;29.70;99.90;;;;;;5076066;28;20442;-67
2021/06/20 10:24:13;;;;;;;9.43;5.77;;;29.10;99.90;;;;;;5079913;28;20898;-67
2021/06/20 10:26:44;;;;;;;6.60;4.70;;;28.60;99.90;;;;;;5087676;28;20554;-69
2021/06/20 10:29:19;;;;;;;11.43;5.93;;;28.40;99.90;;;;;;5088538;28;20446;-67
2021/06/20 10:31:49;;;;;;;15.10;6.20;;;28.40;99.90;;;;;;5069060;28;20797;-67
2021/06/20 10:34:21;;;;;;;12.30;5.90;;;28.60;99.90;;;;;;5064207;28;20475;-68
2021/06/20 10:36:51;;;;;;;7.50;5.00;;;28.50;99.90;;;;;;5065850;28;20945;-67
2021/06/20 10:39:18;;;;;;;12.80;6.00;;;28.50;99.90;;;;;;5065566;28;20899;-67
2021/06/20 10:41:45;;;;;;;14.50;6.80;;;28.50;99.90;;;;;;5071478;28;20872;-69
2021/06/20 10:44:12;;;;;;;10.87;5.77;;;28.60;99.90;;;;;;5069526;28;20562;-68
2021/06/20 10:46:41;;;;;;;11.20;5.83;;;28.50;99.90;;;;;;5069183;28;20478;-67
2021/06/20 10:49:17;;;;;;;10.40;6.00;;;28.50;99.90;;;;;;5068957;28;20451;-67
2021/06/20 10:51:44;;;;;;;10.63;5.67;;;28.90;99.90;;;;;;5069432;28;20482;-68
2021/06/20 10:54:25;;;;;;;14.40;5.70;;;29.30;99.90;;;;;;5069730;28;20979;-68
2021/06/20 10:57:00;;;;;;;14.30;5.40;;;29.50;99.90;;;;;;5069001;28;20526;-68
2021/06/20 10:59:28;;;;;;;14.27;5.93;;;29.90;99.90;;;;;;5068538;28;20454;-68
2021/06/20 11:01:55;;;;;;;11.97;6.30;;;30.10;99.90;;;;;;5069280;28;20452;-67
2021/06/20 11:04:23;;;;;;;8.70;5.10;;;29.90;99.90;;;;;;5064475;28;20466;-69
2021/06/20 11:06:55;;;;;;;14.00;5.20;;;30.10;99.90;;;;;;5072109;28;20487;-68
2021/06/20 11:09:23;;;;;;;11.37;5.30;;;30.70;99.90;;;;;;5078148;28;20852;-68
2021/06/20 11:11:52;;;;;;;7.90;4.50;;;31.20;99.50;;;;;;5088895;28;20446;-70
2021/06/20 11:14:20;;;;;;;9.00;3.67;;;32.00;98.80;;;;;;5069986;28;20481;-67
2021/06/20 11:16:48;;;;;;;8.53;3.67;;;32.40;94.90;;;;;;5061756;28;20533;-69
2021/06/20 11:19:18;;;;;;;9.10;3.77;;;32.60;92.50;;;;;;5062607;28;20552;-68
2021/06/20 11:21:51;;;;;;;8.30;3.33;;;33.10;93.10;;;;;;5064447;28;20455;-67
2021/06/20 11:24:21;;;;;;;8.50;3.20;;;33.40;91.70;;;;;;5077056;28;20524;-68
2021/06/20 11:26:59;;;;;;;5.60;3.67;;;34.00;92.20;;;;;;5068796;28;20553;-68
2021/06/20 11:29:36;;;;;;;8.70;3.53;;;34.10;88.50;;;;;;5067266;28;20451;-69
2021/06/20 11:32:05;;;;;;;8.90;3.50;;;34.20;90.50;;;;;;5065484;28;20471;-70
2021/06/20 11:34:32;;;;;;;9.23;3.87;;;34.50;89.30;;;;;;5072643;28;20893;-70
2021/06/20 11:37:00;;;;;;;9.57;3.77;;;34.80;87.30;;;;;;5074349;28;20521;-69
2021/06/20 11:39:35;;;;;;;5.63;3.20;;;35.10;84.80;;;;;;5081638;28;20605;-67
2021/06/20 11:42:02;;;;;;;7.90;3.77;;;35.30;82.20;;;;;;5070884;28;20493;-67
2021/06/20 11:44:29;;;;;;;6.57;3.20;;;35.50;85.90;;;;;;5078736;28;20546;-67
2021/06/20 11:46:55;;;;;;;9.23;4.00;;;36.00;84.70;;;;;;5089868;28;20482;-67
2021/06/20 11:49:25;;;;;;;9.60;4.23;;;36.00;80.10;;;;;;5090705;28;20929;-65
2021/06/20 11:51:56;;;;;;;7.77;3.13;;;36.30;81.60;;;;;;5092373;28;20450;-68
2021/06/20 11:54:28;;;;;;;11.10;4.00;;;36.50;79.00;;;;;;5091863;28;20944;-68
2021/06/20 11:57:01;;;;;;;8.97;4.23;;;36.70;78.80;;;;;;5092846;28;20441;-68
2021/06/20 11:59:31;;;;;;;10.50;4.40;;;36.90;77.90;;;;;;5092513;28;20444;-67
2021/06/20 12:01:58;;;;;;;7.63;3.87;;;36.90;79.40;;;;;;5093134;28;20446;-68
2021/06/20 12:04:27;;;;;;;7.67;3.93;;;36.80;78.10;;;;;;5092798;28;20520;-70
2021/06/20 12:06:55;;;;;;;10.87;4.83;;;37.00;76.70;;;;;;5092583;28;20488;-68
2021/06/20 12:09:23;;;;;;;9.07;4.60;;;37.00;76.20;;;;;;5092068;28;20480;-68
2021/06/20 12:11:59;;;;;;;9.57;4.07;;;37.10;76.90;;;;;;5092759;28;20449;-68
2021/06/20 12:14:27;;;;;;;9.97;3.70;;;37.10;73.00;;;;;;5092957;28;20473;-67
2021/06/20 12:16:55;;;;;;;12.97;4.17;;;36.90;74.90;;;;;;5092354;28;20541;-67
2021/06/20 12:19:23;;;;;;;9.87;3.80;;;37.20;74.10;;;;;;5091545;28;20523;-67
2021/06/20 12:21:51;;;;;;;8.33;3.60;;;37.30;73.90;;;;;;5065829;28;20545;-66
2021/06/20 12:24:19;;;;;;;12.17;5.00;;;37.40;74.40;;;;;;5070551;28;20550;-70
2021/06/20 12:26:51;;;;;;;15.33;4.57;;;37.40;68.80;;;;;;5075901;28;20484;-68
2021/06/20 12:29:20;;;;;;;15.03;9.30;;;37.30;68.90;;;;;;5065872;28;20444;-69
2021/06/20 12:31:58;;;;;;;9.00;4.10;;;37.60;66.10;;;;;;5061669;28;20455;-67
2021/06/20 12:34:25;;;;;;;12.37;4.87;;;37.50;62.80;;;;;;5068816;28;20466;-68
2021/06/20 12:37:00;;;;;;;11.20;4.87;;;37.80;64.20;;;;;;5067184;28;20438;-68
2021/06/20 12:39:27;;;;;;;15.80;5.20;;;38.00;66.30;;;;;;5065060;28;20941;-68
2021/06/20 12:42:00;;;;;;;12.60;4.73;;;38.20;63.70;;;;;;5063111;28;20453;-68